»·PEaware :: N5755D L88-KSBP

N5755D :: L88-KSBP

FLIGHT INFORMATION

Flight Status: Arrived
Operator: Privately registered:
United States
More flights under this callsign
Pilot: Timothy N. (16038)
Aircraft: CESSNA 172 SKYHAWK
(C172)
More flights by this aircraft type
Origin: L88 New Cuyama
United States
Destination: KSBP San Luis Co Regl
United States
More flights between these airports :: More routes between these airports
Route: POZOE
File this flight plan on PilotEdge
Remarks: cat-2 test
Altitude:
(Current/Filed)
4,500ft
Speed:
(Current/Filed)
100kts
Departed: 17-Jul-17 12:34 PM
Arrived: 17-Jul-17 01:06 PM
Distance/Time
Traveled:
50nm/0:32
Distance/Time
To Go:
Arrived

Flight Plot

Page will automatically refresh every two minutes.


Map Options




Map Legend


Flown Route
Filed Route
Departure Airport
Arrival Airport
Navaid (VOR, NDB)
Fix

Horizontal Profiles

Position Reports

Time Latitude Longitude Heading Altitude Ground
Speed
17-Jul-17 12:18 34.942407 -119.690903 178 2207ft 0kts
17-Jul-17 12:19 34.942407 -119.690903 178 2207ft 0kts
17-Jul-17 12:20 34.942407 -119.690903 178 2207ft 0kts
17-Jul-17 12:21 34.942407 -119.690903 178 2207ft 0kts
17-Jul-17 12:22 34.942407 -119.690903 178 2207ft 0kts
17-Jul-17 12:23 34.942399 -119.690903 180 2207ft 0kts
17-Jul-17 12:24 34.942399 -119.690903 180 2207ft 0kts
17-Jul-17 12:25 34.942399 -119.690903 180 2207ft 0kts
17-Jul-17 12:26 34.942399 -119.690903 180 2207ft 0kts
17-Jul-17 12:27 34.942399 -119.690903 179 2207ft 0kts
17-Jul-17 12:28 34.942399 -119.690903 177 2207ft 0kts
17-Jul-17 12:29 34.942399 -119.690903 177 2207ft 0kts
17-Jul-17 12:30 34.942399 -119.690903 177 2207ft 0kts
17-Jul-17 12:31 34.942399 -119.690903 177 2207ft 0kts
17-Jul-17 12:32 34.942399 -119.690903 177 2207ft 0kts
17-Jul-17 12:33 34.942389 -119.690903 178 2207ft 0kts
17-Jul-17 12:34 34.942161 -119.690816 140 2207ft 4kts
17-Jul-17 12:35 34.940219 -119.686165 117 2207ft 28kts
17-Jul-17 12:36 34.937825 -119.680964 119 2207ft 14kts
17-Jul-17 12:37 34.938873 -119.682981 296 2207ft 52kts
17-Jul-17 12:38 34.949250 -119.705138 300 2945ft 77kts
17-Jul-17 12:39 34.958302 -119.729161 291 3774ft 76kts
17-Jul-17 12:40 34.966289 -119.753969 293 4509ft 83kts
17-Jul-17 12:41 34.977300 -119.780941 297 4564ft 94kts
17-Jul-17 12:42 34.990382 -119.810808 297 4509ft 103kts
17-Jul-17 12:43 35.004243 -119.841665 296 4482ft 103kts
17-Jul-17 12:44 35.016968 -119.873012 298 4492ft 100kts
17-Jul-17 12:45 35.030127 -119.903510 296 4494ft 102kts
17-Jul-17 12:46 35.043410 -119.933897 298 4506ft 101kts
17-Jul-17 12:47 35.057808 -119.963658 300 4517ft 101kts
17-Jul-17 12:48 35.071837 -119.993436 301 4527ft 102kts
17-Jul-17 12:49 35.086700 -120.023642 300 4484ft 104kts
17-Jul-17 12:50 35.100528 -120.054088 298 4421ft 107kts
17-Jul-17 12:51 35.110849 -120.084216 287 4467ft 102kts
17-Jul-17 12:52 35.118763 -120.117654 282 4466ft 102kts
17-Jul-17 12:53 35.125469 -120.151430 287 4460ft 103kts
17-Jul-17 12:54 35.135985 -120.183586 301 4458ft 103kts
17-Jul-17 12:55 35.150658 -120.213534 298 4463ft 103kts
17-Jul-17 12:56 35.162331 -120.245131 286 4466ft 102kts
17-Jul-17 12:57 35.166299 -120.278986 274 4539ft 98kts
17-Jul-17 12:58 35.169968 -120.312373 276 4565ft 100kts
17-Jul-17 12:59 35.171536 -120.346687 274 4558ft 103kts
17-Jul-17 13:00 35.171714 -120.379415 269 4556ft 103kts
17-Jul-17 13:01 35.173831 -120.415816 281 4416ft 108kts
17-Jul-17 13:02 35.181334 -120.450393 290 4396ft 105kts
17-Jul-17 13:03 35.191759 -120.482510 292 4444ft 102kts
17-Jul-17 13:04 35.204510 -120.514503 298 4388ft 104kts
17-Jul-17 13:05 35.218550 -120.543903 301 3999ft 96kts
17-Jul-17 13:06 35.220485 -120.576114 262 2813ft 111kts
17-Jul-17 13:07 35.220759 -120.609878 284 1425ft 89kts
17-Jul-17 13:08 35.231792 -120.631375 306 360ft 62kts
17-Jul-17 13:09 35.235311 -120.636216 76 215ft 0kts
17-Jul-17 13:10 35.235311 -120.636216 76 215ft 0kts
17-Jul-17 13:11 35.235311 -120.636216 77 215ft 0kts
17-Jul-17 13:12 35.236757 -120.638108 304 215ft 13kts
17-Jul-17 13:13 35.237710 -120.638641 300 215ft 0kts

Navigation Log

Ident Type
Flight plan parsing failed, navigation log unavailable